Time;durP1;ratioP1;P1;durP2;ratioP2;P2;SDS_P1;SDS_P2;PMS_P1;PMS_P2;Temp;Humidity;BMP_temperature;BMP_pressure;BME280_temperature;BME280_humidity;BME280_pressure;Samples;Min_cycle;Max_cycle;Signal;HPM_P1;HPM_P2
2022/07/24 00:01:42;;;;;;;;;29.00;26.40;;;;;28.27;55.59;98828.31;6091977;28;96893;-57
2022/07/24 00:04:47;;;;;;;;;31.60;29.00;;;;;28.22;55.89;98836.81;6092455;28;96799;-57
2022/07/24 00:07:52;;;;;;;;;26.00;24.25;;;;;28.19;55.90;98831.97;6091329;28;96866;-58
2022/07/24 00:10:55;;;;;;;;;28.50;27.50;;;;;28.18;55.95;98838.66;6091478;28;97402;-56
2022/07/24 00:13:59;;;;;;;;;28.60;25.60;;;;;28.14;55.54;98841.31;6092121;28;97504;-55
2022/07/24 00:17:02;;;;;;;;;28.25;26.25;;;;;28.11;56.15;98844.75;6092211;28;97089;-57
2022/07/24 00:20:09;;;;;;;;;36.00;31.80;;;;;28.09;55.58;98841.47;6091669;28;97344;-57
2022/07/24 00:23:12;;;;;;;;;28.00;27.00;;;;;28.06;55.64;98850.44;6092181;28;97008;-57
2022/07/24 00:26:18;;;;;;;;;28.60;26.00;;;;;28.05;55.98;98840.53;6090071;28;98128;-56
2022/07/24 00:29:21;;;;;;;;;40.00;35.00;;;;;28.04;56.12;98841.69;6091431;28;97033;-56
2022/07/24 00:32:24;;;;;;;;;30.00;27.00;;;;;28.02;55.78;98841.19;6091645;28;96884;-57
2022/07/24 00:35:29;;;;;;;;;13.50;12.00;;;;;27.99;55.82;98839.09;6091458;28;97421;-61
2022/07/24 00:38:32;;;;;;;;;29.00;27.00;;;;;27.98;55.45;98840.25;6091336;28;97489;-56
2022/07/24 00:41:36;;;;;;;;;32.00;30.00;;;;;27.97;55.58;98836.66;6091717;28;96794;-56
2022/07/24 00:44:39;;;;;;;;;29.75;28.00;;;;;27.96;55.79;98835.03;6091465;28;96991;-57
2022/07/24 00:47:43;;;;;;;;;34.75;30.75;;;;;27.93;55.75;98840.44;6091250;28;96504;-59
2022/07/24 00:50:49;;;;;;;;;26.50;25.25;;;;;27.92;56.02;98850.72;6091360;28;98205;-60
2022/07/24 00:53:53;;;;;;;;;27.00;27.00;;;;;27.90;55.63;98841.94;6091506;28;96430;-58
2022/07/24 00:56:56;;;;;;;;;33.00;30.20;;;;;27.69;55.85;98813.41;6091032;28;96745;-55
2022/07/24 01:00:00;;;;;;;;;30.80;26.80;;;;;27.87;56.33;98844.56;6091329;28;97720;-58
2022/07/24 01:03:03;;;;;;;;;34.00;30.00;;;;;27.83;56.06;98844.44;6090256;28;98170;-57
2022/07/24 01:06:09;;;;;;;;;32.50;29.00;;;;;27.84;56.29;98843.28;6090840;28;98119;-58
2022/07/24 01:09:13;;;;;;;;;36.20;32.00;;;;;27.82;56.17;98834.50;6090662;28;97615;-54
2022/07/24 01:12:16;;;;;;;;;33.60;29.40;;;;;27.81;56.23;98832.03;6091146;28;97415;-56
2022/07/24 01:15:20;;;;;;;;;31.00;28.00;;;;;27.83;56.23;98829.75;6090329;28;97778;-55
2022/07/24 01:18:24;;;;;;;;;37.00;30.00;;;;;27.83;56.43;98838.06;6090994;28;96614;-56
2022/07/24 01:21:29;;;;;;;;;28.20;26.00;;;;;27.83;56.35;98841.66;6090558;28;96857;-54
2022/07/24 01:24:33;;;;;;;;;29.00;27.50;;;;;27.83;56.59;98833.34;6090196;28;97060;-54
2022/07/24 01:27:36;;;;;;;;;29.00;28.00;;;;;27.84;56.67;98834.16;6090501;28;97452;-55
2022/07/24 01:30:40;;;;;;;;;30.67;28.67;;;;;27.84;57.05;98837.75;6090372;28;97194;-57
2022/07/24 01:33:43;;;;;;;;;31.00;29.00;;;;;27.66;56.68;98810.50;6089976;28;96767;-54
2022/07/24 01:36:48;;;;;;;;;30.00;28.50;;;;;27.84;57.06;98836.94;6090505;28;96896;-56
2022/07/24 01:39:51;;;;;;;;;33.00;30.25;;;;;27.84;57.17;98839.69;6090355;28;97467;-58
2022/07/24 01:42:55;;;;;;;;;32.00;28.00;;;;;27.83;56.96;98838.88;6089411;28;96385;-53
2022/07/24 01:45:59;;;;;;;;;29.80;27.40;;;;;27.82;57.03;98841.97;6090362;28;96577;-57
2022/07/24 01:49:02;;;;;;;;;31.00;28.50;;;;;27.79;57.25;98843.47;6090381;28;98200;-56
2022/07/24 01:52:08;;;;;;;;;33.80;30.00;;;;;27.77;57.02;98850.50;6090232;28;97070;-56
2022/07/24 01:55:11;;;;;;;;;34.00;31.00;;;;;27.74;57.05;98840.91;6089987;28;96949;-54
2022/07/24 01:58:15;;;;;;;;;34.00;30.00;;;;;27.74;56.82;98846.44;6089937;28;96687;-57
2022/07/24 02:01:20;;;;;;;;;40.40;33.40;;;;;27.74;57.31;98853.94;6090358;28;97367;-55
2022/07/24 02:04:24;;;;;;;;;38.00;30.75;;;;;27.74;57.01;98853.94;6089347;28;96669;-56
2022/07/24 02:07:29;;;;;;;;;35.00;31.80;;;;;27.73;56.95;98853.13;6089096;28;97849;-61
2022/07/24 02:10:35;;;;;;;;;38.00;32.50;;;;;27.74;57.17;98856.72;6090135;28;97092;-54
2022/07/24 02:13:38;;;;;;;;;33.60;30.00;;;;;27.72;57.21;98859.00;6089567;28;97368;-56
2022/07/24 02:16:42;;;;;;;;;33.20;31.20;;;;;27.71;57.28;98860.16;6089496;28;96519;-53
2022/07/24 02:19:45;;;;;;;;;34.60;30.20;;;;;27.69;57.05;98859.69;6089712;28;97644;-58
2022/07/24 02:22:51;;;;;;;;;36.00;32.00;;;;;27.70;57.38;98864.06;6089536;28;97015;-57
2022/07/24 02:25:54;;;;;;;;;36.00;32.00;;;;;27.69;57.21;98870.75;6089793;28;97013;-56
2022/07/24 02:28:57;;;;;;;;;39.67;34.67;;;;;27.68;57.25;98880.22;6088264;28;97451;-57
2022/07/24 02:32:01;;;;;;;;;37.20;32.00;;;;;27.67;56.74;98875.81;6089086;28;96696;-55
2022/07/24 02:35:05;;;;;;;;;37.80;33.00;;;;;27.64;56.86;98880.06;6075973;28;96511;-56
2022/07/24 02:38:10;;;;;;;;;38.40;33.00;;;;;27.66;56.93;98882.53;6089542;28;97179;-56
2022/07/24 02:41:14;;;;;;;;;38.50;32.00;;;;;27.67;56.43;98884.13;6088326;28;97107;-57
2022/07/24 02:44:18;;;;;;;;;39.40;33.60;;;;;27.69;55.88;98881.84;6089637;28;97080;-55
2022/07/24 02:47:21;;;;;;;;;35.60;32.00;;;;;27.67;55.86;98886.88;6089678;28;96988;-59
2022/07/24 02:50:30;;;;;;;;;36.00;31.50;;;;;27.69;55.37;98890.16;6092097;28;98109;-57
2022/07/24 02:53:35;;;;;;;;;36.00;30.75;;;;;27.70;55.07;98891.78;6092880;28;96903;-59
2022/07/24 02:56:38;;;;;;;;;39.20;33.20;;;;;27.70;55.48;98895.38;6093451;28;97668;-56
2022/07/24 02:59:42;;;;;;;;;35.00;32.00;;;;;27.71;54.96;98904.50;6093341;28;97261;-58
2022/07/24 03:02:45;;;;;;;;;32.60;30.00;;;;;27.70;55.28;98906.44;6092859;28;97490;-57
2022/07/24 03:05:48;;;;;;;;;33.00;28.60;;;;;27.70;55.35;98911.16;6093274;28;96998;-58
2022/07/24 03:08:53;;;;;;;;;33.25;31.25;;;;;27.67;54.86;98912.63;6092936;28;97075;-59
2022/07/24 03:11:56;;;;;;;;;34.80;30.40;;;;;27.68;54.62;98910.66;6091409;28;97558;-54
2022/07/24 03:15:00;;;;;;;;;32.20;29.20;;;;;27.68;54.54;98916.22;6093171;28;98760;-58
2022/07/24 03:18:03;;;;;;;;;29.25;27.25;;;;;27.67;54.13;98922.91;6092967;28;97267;-60
2022/07/24 03:21:20;;;;;;;;;32.00;27.00;;;;;27.67;53.71;98929.25;6093613;28;98172;-55
2022/07/24 03:24:46;;;;;;;;;30.00;27.00;;;;;27.64;53.88;98931.88;6092988;28;96493;-59
2022/07/24 03:27:50;;;;;;;;;29.00;28.00;;;;;27.63;53.21;98939.38;6093102;28;96642;-53
2022/07/24 03:30:53;;;;;;;;;31.00;26.40;;;;;27.62;53.24;98937.75;6092832;28;97410;-55
2022/07/24 03:33:56;;;;;;;;;31.00;28.40;;;;;27.62;52.68;98934.16;6092346;28;97654;-59
2022/07/24 03:37:00;;;;;;;;;23.00;21.00;;;;;27.62;52.68;98939.69;6092015;28;97446;-56
2022/07/24 03:40:06;;;;;;;;;25.60;23.00;;;;;27.66;51.88;98941.47;6092882;28;96877;-55
2022/07/24 03:43:10;;;;;;;;;28.50;26.75;;;;;27.66;51.60;98940.69;6092457;28;97532;-54
2022/07/24 03:46:13;;;;;;;;;26.40;22.00;;;;;27.66;51.82;98949.00;6092450;28;97414;-54
2022/07/24 03:49:16;;;;;;;;;20.75;19.25;;;;;27.67;51.70;98947.81;6092072;28;96595;-56
2022/07/24 03:52:21;;;;;;;;;26.00;23.60;;;;;27.68;51.56;98961.34;6092149;28;97458;-55
2022/07/24 03:55:28;;;;;;;;;24.00;23.00;;;;;27.70;51.35;98961.84;6092183;28;96692;-56
2022/07/24 03:58:31;;;;;;;;;29.20;25.60;;;;;27.72;51.50;98959.53;6085741;28;97180;-56
2022/07/24 04:01:41;;;;;;;;;24.20;22.20;;;;;27.72;51.18;98964.25;6067369;28;97376;-59
2022/07/24 04:04:45;;;;;;;;;23.00;22.00;;;;;27.71;50.85;98965.44;6067071;28;97461;-58
2022/07/24 04:07:48;;;;;;;;;24.50;22.00;;;;;27.73;50.74;98976.97;6073310;28;96647;-54
2022/07/24 04:10:56;;;;;;;;;20.00;20.00;;;;;27.73;50.03;98975.00;6074067;28;97238;-59
2022/07/24 04:14:00;;;;;;;;;23.40;22.40;;;;;27.56;50.05;98941.88;6077040;28;97495;-60
2022/07/24 04:17:04;;;;;;;;;21.50;20.50;;;;;27.76;49.79;98973.56;6087235;28;97200;-65
2022/07/24 04:20:09;;;;;;;;;23.40;22.40;;;;;27.83;49.57;98984.91;6091933;28;96535;-59
2022/07/24 04:23:12;;;;;;;;;20.40;18.40;;;;;27.85;49.61;98983.44;6090607;28;98389;-55
2022/07/24 04:26:17;;;;;;;;;25.60;23.00;;;;;27.85;49.19;98990.94;6090441;28;97461;-58
2022/07/24 04:29:21;;;;;;;;;25.50;24.50;;;;;27.84;49.08;98994.84;6088935;28;96835;-59
2022/07/24 04:32:25;;;;;;;;;23.40;21.40;;;;;27.85;49.43;98996.50;6090193;28;96595;-60
2022/07/24 04:35:28;;;;;;;;;22.00;20.40;;;;;27.83;49.32;98999.59;6089331;28;97458;-60
2022/07/24 04:38:32;;;;;;;;;21.00;19.00;;;;;27.87;48.92;99013.56;6081605;28;96733;-57
2022/07/24 04:41:37;;;;;;;;;19.00;17.60;;;;;27.88;48.30;99026.28;6080432;28;97064;-59
2022/07/24 04:44:41;;;;;;;;;22.00;20.00;;;;;27.90;48.49;99024.00;6086564;28;96852;-56
2022/07/24 04:47:44;;;;;;;;;23.50;22.00;;;;;27.92;48.45;99022.53;6080170;28;97424;-58
2022/07/24 04:50:48;;;;;;;;;20.40;19.00;;;;;27.94;48.12;99017.47;6089617;28;97392;-56
2022/07/24 04:53:52;;;;;;;;;18.00;17.00;;;;;27.99;47.95;99024.78;6089286;28;97355;-58
2022/07/24 04:56:57;;;;;;;;;20.00;18.00;;;;;28.02;47.60;99021.34;6089103;28;97486;-57
2022/07/24 05:00:01;;;;;;;;;17.60;16.60;;;;;28.04;47.26;99018.25;6089528;28;96594;-60
2022/07/24 05:03:05;;;;;;;;;24.00;22.80;;;;;28.08;47.12;99022.78;6090253;28;98644;-57
2022/07/24 05:06:08;;;;;;;;;20.00;19.50;;;;;28.13;47.35;99030.13;6089331;28;97250;-55
2022/07/24 05:09:11;;;;;;;;;19.00;18.00;;;;;28.19;46.99;99023.25;6088809;28;97159;-55
2022/07/24 05:12:16;;;;;;;;;23.20;22.20;;;;;28.29;46.93;99023.69;6088575;28;97162;-56
2022/07/24 05:15:19;;;;;;;;;24.40;22.40;;;;;28.35;46.16;99027.06;6089445;28;97481;-56
2022/07/24 05:18:23;;;;;;;;;20.40;20.00;;;;;28.41;46.34;99031.28;6089733;28;97182;-56
2022/07/24 05:21:26;;;;;;;;;22.50;20.25;;;;;28.48;46.28;99030.75;6090255;28;96626;-57
2022/07/24 05:24:30;;;;;;;;;21.40;21.40;;;;;28.55;45.94;99028.22;6090495;28;96662;-59
2022/07/24 05:27:35;;;;;;;;;21.40;20.40;;;;;28.62;45.41;99026.56;6090504;28;97493;-57
2022/07/24 05:30:38;;;;;;;;;21.50;19.00;;;;;28.70;45.38;99028.47;6090969;28;96376;-57
2022/07/24 05:33:42;;;;;;;;;21.20;19.60;;;;;28.75;44.88;99033.03;6089801;28;97367;-56
2022/07/24 05:36:45;;;;;;;;;25.40;23.40;;;;;28.81;44.83;99040.81;6090637;28;96685;-59
2022/07/24 05:39:49;;;;;;;;;20.50;19.50;;;;;28.87;44.90;99043.38;6090474;28;96598;-55
2022/07/24 05:43:00;;;;;;;;;21.60;19.00;;;;;28.91;44.18;99044.34;6090691;28;97501;-57
2022/07/24 05:46:04;;;;;;;;;19.80;19.80;;;;;28.95;44.02;99039.72;6090607;28;99227;-57
2022/07/24 05:49:07;;;;;;;;;20.00;18.75;;;;;28.97;44.25;99035.47;6089858;28;98191;-59
2022/07/24 05:52:12;;;;;;;;;19.00;17.60;;;;;29.03;43.27;99041.63;6090322;28;96795;-56
2022/07/24 05:55:15;;;;;;;;;18.00;15.40;;;;;29.06;42.95;99041.75;6090204;28;97033;-56
2022/07/24 05:58:21;;;;;;;;;18.00;16.25;;;;;29.10;43.41;99050.22;6090853;28;97854;-57
2022/07/24 06:01:24;;;;;;;;;19.40;16.40;;;;;29.18;42.75;99046.53;6090180;28;96661;-55
2022/07/24 06:04:28;;;;;;;;;16.00;14.60;;;;;29.22;42.72;99048.28;6088485;28;99716;-56
2022/07/24 06:07:31;;;;;;;;;15.60;13.00;;;;;29.26;42.81;99046.47;6089783;28;96538;-55
2022/07/24 06:10:34;;;;;;;;;20.00;18.00;;;;;29.32;42.66;99051.84;6089924;28;96714;-57
2022/07/24 06:13:39;;;;;;;;;16.40;16.00;;;;;29.35;42.20;99046.41;6090054;28;96962;-58
2022/07/24 06:16:43;;;;;;;;;17.00;16.00;;;;;29.40;42.10;99054.53;6090373;28;97582;-60
2022/07/24 06:19:46;;;;;;;;;17.00;16.00;;;;;29.46;42.19;99047.63;6089947;28;97524;-58
2022/07/24 06:22:50;;;;;;;;;19.00;17.00;;;;;29.52;42.25;99056.53;6089967;28;96682;-51
2022/07/24 06:25:53;;;;;;;;;15.50;15.50;;;;;29.59;41.58;99057.59;6089253;28;97538;-60
2022/07/24 06:28:58;;;;;;;;;17.00;17.00;;;;;29.67;41.34;99061.44;6089625;28;96894;-59
2022/07/24 06:32:01;;;;;;;;;14.00;14.00;;;;;29.73;41.06;99053.69;6089367;28;96540;-59
2022/07/24 06:35:06;;;;;;;;;17.60;16.00;;;;;29.80;40.87;99062.28;6089771;28;96919;-56
2022/07/24 06:38:10;;;;;;;;;12.00;12.00;;;;;29.88;40.36;99053.03;6089641;28;98114;-58
2022/07/24 06:41:13;;;;;;;;;14.75;13.75;;;;;29.95;39.99;99059.69;6089671;28;98140;-60
2022/07/24 06:44:18;;;;;;;;;12.00;11.20;;;;;30.05;39.10;99067.59;6089691;28;97035;-57
2022/07/24 06:47:21;;;;;;;;;10.50;10.50;;;;;30.15;37.41;99059.94;6089553;28;97350;-62
2022/07/24 06:50:24;;;;;;;;;13.00;12.00;;;;;30.25;37.22;99065.06;6089390;28;97362;-58
2022/07/24 06:53:28;;;;;;;;;11.00;9.00;;;;;30.30;36.38;99062.81;6089676;28;97468;-58
2022/07/24 06:56:32;;;;;;;;;10.00;9.40;;;;;30.39;36.25;99076.63;6077621;28;97020;-58
2022/07/24 06:59:37;;;;;;;;;11.40;11.40;;;;;30.41;36.40;99071.53;6087884;28;97115;-57
2022/07/24 07:02:40;;;;;;;;;10.00;10.00;;;;;30.42;35.87;99073.97;6076173;28;96751;-59
2022/07/24 07:05:44;;;;;;;;;9.75;9.50;;;;;30.46;35.46;99065.75;6066193;28;97017;-58
2022/07/24 07:08:50;;;;;;;;;8.00;8.00;;;;;30.52;34.09;99065.19;6066357;28;97432;-61
2022/07/24 07:11:53;;;;;;;;;10.00;9.40;;;;;30.59;32.41;99070.16;6085360;28;98098;-56
2022/07/24 07:14:59;;;;;;;;;7.00;7.00;;;;;30.70;32.42;99068.50;6088829;28;97025;-63
2022/07/24 07:18:02;;;;;;;;;8.60;8.00;;;;;30.72;32.77;99068.97;6089426;28;98326;-57
2022/07/24 07:21:06;;;;;;;;;8.60;8.60;;;;;30.84;32.75;99080.06;6089212;28;97448;-59
2022/07/24 07:24:10;;;;;;;;;8.25;7.25;;;;;30.95;32.34;99072.06;6088775;28;97637;-56
2022/07/24 07:27:14;;;;;;;;;7.80;7.00;;;;;31.04;31.91;99069.97;6089413;28;96571;-55
2022/07/24 07:30:19;;;;;;;;;10.75;10.00;;;;;31.14;32.29;99069.47;6088748;28;97189;-58
2022/07/24 07:33:23;;;;;;;;;8.20;8.20;;;;;31.25;32.78;99067.00;6065879;28;98055;-60
2022/07/24 07:36:27;;;;;;;;;7.20;7.20;;;;;31.38;32.60;99077.75;6073338;28;97342;-55
2022/07/24 07:39:30;;;;;;;;;9.00;8.40;;;;;31.49;31.65;99077.22;6070291;28;99481;-56
2022/07/24 07:42:33;;;;;;;;;8.00;8.00;;;;;31.53;31.04;99087.31;6079397;28;97099;-59
2022/07/24 07:45:38;;;;;;;;;9.00;8.40;;;;;31.54;30.91;99088.94;6070820;28;97437;-58
2022/07/24 07:48:42;;;;;;;;;8.40;8.00;;;;;31.51;30.69;99088.84;6073284;28;97241;-58
2022/07/24 07:51:47;;;;;;;;;7.50;7.50;;;;;31.50;30.37;99093.59;6092732;28;96620;-57
2022/07/24 07:54:52;;;;;;;;;9.40;9.00;;;;;31.53;30.09;99092.88;6089640;28;97698;-58
2022/07/24 07:57:58;;;;;;;;;7.00;7.00;;;;;31.41;29.86;99073.44;6089185;28;98155;-58
2022/07/24 08:01:09;;;;;;;;;7.40;7.00;;;;;31.66;30.25;99097.28;6092702;28;97449;-57
2022/07/24 08:04:12;;;;;;;;;9.00;9.00;;;;;31.77;29.96;99097.56;6087669;28;96817;-58
2022/07/24 08:07:15;;;;;;;;;8.00;7.00;;;;;31.92;30.76;99095.97;6092091;28;97586;-65
2022/07/24 08:10:19;;;;;;;;;7.00;7.00;;;;;32.00;29.28;99111.72;6082766;28;97801;-60
2022/07/24 08:13:26;;;;;;;;;8.00;7.40;;;;;32.09;28.92;99109.56;6091943;28;97281;-59
2022/07/24 08:16:30;;;;;;;;;8.00;7.00;;;;;32.19;29.46;99111.84;6092330;28;97155;-57
2022/07/24 08:19:34;;;;;;;;;8.00;8.00;;;;;32.32;29.67;99104.19;6088377;28;97075;-56
2022/07/24 08:22:37;;;;;;;;;9.80;9.00;;;;;32.45;29.21;99102.94;6085501;28;97602;-60
2022/07/24 08:25:41;;;;;;;;;7.80;7.00;;;;;32.55;28.68;99103.19;6091699;28;97032;-59
2022/07/24 08:28:44;;;;;;;;;7.60;7.20;;;;;32.70;28.90;99117.50;6091910;28;97392;-57
2022/07/24 08:31:49;;;;;;;;;10.00;9.00;;;;;32.84;28.74;99106.69;6083994;28;97359;-58
2022/07/24 08:34:53;;;;;;;;;8.20;8.00;;;;;32.97;29.53;99100.63;6089188;28;97243;-56
2022/07/24 08:37:56;;;;;;;;;12.00;11.00;;;;;33.14;28.08;99098.56;6091496;28;97328;-58
2022/07/24 08:41:00;;;;;;;;;9.00;9.00;;;;;33.19;27.54;99103.91;6091783;28;97370;-63
2022/07/24 08:44:04;;;;;;;;;8.00;8.00;;;;;33.22;26.63;99109.56;6091623;28;97408;-55
2022/07/24 08:47:09;;;;;;;;;10.00;9.25;;;;;33.31;26.72;99104.59;6090483;28;96828;-61
2022/07/24 08:50:12;;;;;;;;;8.00;8.00;;;;;33.41;25.98;99115.19;6091772;28;98115;-55
2022/07/24 08:53:16;;;;;;;;;7.00;7.00;;;;;33.42;26.20;99108.41;6091438;28;97438;-58
2022/07/24 08:56:19;;;;;;;;;10.00;10.00;;;;;33.47;26.70;99104.50;6091816;28;97051;-56
2022/07/24 08:59:24;;;;;;;;;8.00;8.00;;;;;33.55;27.05;99109.06;6091252;28;97028;-60
2022/07/24 09:02:30;;;;;;;;;10.60;9.60;;;;;33.63;26.47;99118.38;6090896;28;96945;-57
2022/07/24 09:05:36;;;;;;;;;8.20;8.00;;;;;33.63;26.83;99116.41;6091884;28;96510;-59
2022/07/24 09:08:40;;;;;;;;;7.20;7.00;;;;;33.70;26.46;99111.00;6089020;28;97275;-57
2022/07/24 09:11:43;;;;;;;;;12.50;12.00;;;;;33.83;26.94;99123.63;6090252;28;97497;-58
2022/07/24 09:14:48;;;;;;;;;9.00;8.50;;;;;33.96;25.48;99113.09;6089902;28;97740;-57
2022/07/24 09:17:55;;;;;;;;;11.40;10.00;;;;;34.12;25.88;99115.75;6090271;28;96523;-56
2022/07/24 09:21:00;;;;;;;;;11.00;11.00;;;;;34.04;25.86;99094.44;6090359;28;97845;-62
2022/07/24 09:24:15;;;;;;;;;8.60;8.60;;;;;34.26;26.13;99113.22;6074919;28;96983;-57
2022/07/24 09:27:18;;;;;;;;;9.40;8.60;;;;;34.27;25.89;99112.84;6090864;28;96977;-56
2022/07/24 09:30:28;;;;;;;;;11.40;11.00;;;;;34.28;25.86;99127.66;6084678;28;97445;-62
2022/07/24 09:33:36;;;;;;;;;12.00;12.00;;;;;34.22;26.06;99126.34;6080827;28;96876;-57
2022/07/24 09:36:40;;;;;;;;;8.60;8.60;;;;;34.15;25.75;99127.03;6089562;28;97499;-56
2022/07/24 09:39:45;;;;;;;;;10.60;10.60;;;;;34.20;26.11;99129.53;6090078;28;96529;-60
2022/07/24 09:42:48;;;;;;;;;10.60;10.20;;;;;34.26;24.54;99121.63;6090582;28;97515;-56
2022/07/24 09:45:58;;;;;;;;;11.00;11.00;;;;;34.33;24.37;99121.75;6086046;28;96770;-56
2022/07/24 09:49:04;;;;;;;;;11.60;11.60;;;;;34.46;25.49;99117.56;6073526;28;97752;-58
2022/07/24 09:52:12;;;;;;;;;15.00;14.00;;;;;34.61;24.50;99113.00;6084164;28;97887;-58
2022/07/24 09:55:25;;;;;;;;;13.75;13.25;;;;;34.71;24.65;99106.78;6082556;28;97119;-57
2022/07/24 09:58:30;;;;;;;;;13.00;12.25;;;;;34.71;24.47;99104.00;6089868;28;96544;-58
2022/07/24 10:01:36;;;;;;;;;12.00;12.00;;;;;34.68;24.38;99104.75;6088007;28;97498;-58
2022/07/24 10:04:43;;;;;;;;;11.60;11.00;;;;;34.69;24.63;99112.78;6088076;28;97049;-60
2022/07/24 10:07:49;;;;;;;;;12.00;11.20;;;;;34.80;25.71;99112.16;6089749;28;96860;-60
2022/07/24 10:10:52;;;;;;;;;14.00;13.40;;;;;34.95;25.33;99108.34;6090008;28;97503;-57
2022/07/24 10:13:59;;;;;;;;;13.20;12.00;;;;;35.05;24.73;99113.28;6089593;28;97135;-62
2022/07/24 10:17:06;;;;;;;;;12.00;12.00;;;;;35.10;25.28;99108.16;6090085;28;96459;-61
2022/07/24 10:20:38;;;;;;;;;14.00;13.00;;;;;35.22;24.82;99100.75;6089394;28;97942;-56
2022/07/24 10:24:10;;;;;;;;;15.25;14.75;;;;;35.31;24.21;99104.88;6082654;28;97322;-55
2022/07/24 10:27:29;;;;;;;;;12.00;12.00;;;;;35.35;23.54;99100.13;6086211;28;96803;-56
2022/07/24 10:30:33;;;;;;;;;12.40;12.00;;;;;35.42;23.33;99094.63;6088416;28;97528;-55
2022/07/24 10:33:38;;;;;;;;;12.50;12.50;;;;;35.49;22.74;99089.06;6088013;28;97438;-59
2022/07/24 10:36:50;;;;;;;;;14.00;13.75;;;;;35.56;22.37;99086.38;6088943;28;97541;-61
2022/07/24 10:40:04;;;;;;;;;15.00;15.00;;;;;35.63;22.84;99089.25;6088024;28;96892;-57
2022/07/24 10:43:18;;;;;;;;;15.75;15.75;;;;;35.71;23.32;99090.16;6079618;28;97660;-56
2022/07/24 10:46:21;;;;;;;;;14.00;14.00;;;;;35.75;23.21;99085.41;6089356;28;96482;-65
2022/07/24 10:49:42;;;;;;;;;15.00;15.00;;;;;35.68;23.06;99090.91;6077006;28;97587;-60
2022/07/24 10:52:51;;;;;;;;;15.00;15.00;;;;;35.61;22.79;99063.59;6076273;28;97461;-56
2022/07/24 10:56:16;;;;;;;;;15.00;15.00;;;;;35.78;23.47;99079.00;6077970;28;97335;-58
2022/07/24 10:59:34;;;;;;;;;15.25;14.00;;;;;35.83;23.63;99077.84;6074534;28;96742;-59
2022/07/24 11:02:39;;;;;;;;;14.40;14.40;;;;;35.84;22.76;99071.06;6101676;28;97132;-55
2022/07/24 11:05:43;;;;;;;;;14.00;14.00;;;;;35.86;23.89;99077.91;6087926;28;97221;-57
2022/07/24 11:08:51;;;;;;;;;16.00;16.00;;;;;35.89;22.61;99073.50;6088368;28;97089;-58
2022/07/24 11:12:06;;;;;;;;;16.00;16.00;;;;;35.93;23.04;99065.94;6091894;28;97047;-58
2022/07/24 11:19:02;;;;;;;;;13.00;12.00;;;;;35.87;23.00;99062.66;6089470;28;97001;-60
2022/07/24 11:22:12;;;;;;;;;10.60;10.60;;;;;35.76;22.72;99069.38;6085798;28;96566;-58
2022/07/24 11:25:19;;;;;;;;;13.40;12.80;;;;;35.74;22.94;99063.34;6076383;28;96608;-58
2022/07/24 11:28:22;;;;;;;;;13.00;13.00;;;;;35.75;22.83;99060.16;6091265;28;96773;-60
2022/07/24 11:31:26;;;;;;;;;11.60;11.60;;;;;35.78;23.11;99053.75;6092068;28;97290;-59
2022/07/24 11:34:30;;;;;;;;;12.00;12.00;;;;;35.82;22.76;99054.63;6092475;28;96794;-58
2022/07/24 11:37:35;;;;;;;;;14.00;14.00;;;;;35.77;22.48;99052.16;6089151;28;97546;-58
2022/07/24 11:40:40;;;;;;;;;10.50;10.50;;;;;35.77;23.08;99059.78;6085049;28;96608;-58
2022/07/24 11:43:51;;;;;;;;;11.00;11.00;;;;;35.78;23.02;99055.75;6089818;28;97525;-58
2022/07/24 11:46:56;;;;;;;;;12.00;11.00;;;;;35.84;22.76;99046.63;6088994;28;97424;-55
2022/07/24 11:50:02;;;;;;;;;10.80;10.80;;;;;35.88;23.44;99049.44;6091710;28;97022;-57
2022/07/24 11:53:07;;;;;;;;;10.40;10.00;;;;;35.87;23.28;99053.47;6090779;28;96695;-57
2022/07/24 11:56:13;;;;;;;;;10.00;9.40;;;;;35.88;23.16;99049.44;6092246;28;97640;-58
2022/07/24 11:59:24;;;;;;;;;12.20;12.00;;;;;35.84;22.58;99037.38;6088569;28;97432;-61
2022/07/24 12:02:27;;;;;;;;;11.25;11.00;;;;;35.80;23.02;99036.56;6089687;28;97105;-60
2022/07/24 12:05:34;;;;;;;;;12.00;12.00;;;;;35.80;23.46;99042.16;6086104;28;97480;-60
2022/07/24 12:08:37;;;;;;;;;13.60;13.00;;;;;35.82;24.12;99042.59;6089272;28;97509;-57
2022/07/24 12:11:42;;;;;;;;;11.25;11.25;;;;;35.90;23.64;99033.84;6083525;28;97518;-58
2022/07/24 12:14:45;;;;;;;;;12.60;12.60;;;;;35.99;22.77;99039.13;6082328;28;96674;-57
2022/07/24 12:17:59;;;;;;;;;13.60;11.60;;;;;35.98;22.99;99037.50;6078011;28;97486;-54
2022/07/24 12:21:03;;;;;;;;;13.00;12.00;;;;;35.99;23.03;99037.13;6082982;28;97272;-55
2022/07/24 12:24:07;;;;;;;;;12.40;11.00;;;;;35.89;22.95;99015.41;6070365;28;97384;-61
2022/07/24 12:27:12;;;;;;;;;13.00;12.00;;;;;36.08;23.30;99038.81;6071956;28;97218;-54
2022/07/24 12:30:22;;;;;;;;;14.00;13.40;;;;;35.99;22.96;98994.22;6074656;28;97508;-58
2022/07/24 12:33:29;;;;;;;;;12.00;12.00;;;;;36.25;23.00;99035.38;6072369;28;98349;-63
2022/07/24 12:36:33;;;;;;;;;15.00;15.00;;;;;36.28;22.95;99037.41;6086210;28;97446;-58
2022/07/24 12:39:46;;;;;;;;;13.40;11.40;;;;;36.27;22.06;99025.34;6088811;28;98589;-56
2022/07/24 12:42:57;;;;;;;;;12.50;12.00;;;;;36.23;22.35;99026.53;6086714;28;97463;-57
2022/07/24 12:46:07;;;;;;;;;13.00;12.00;;;;;36.20;22.21;99027.31;6090273;28;97478;-55
2022/07/24 12:49:12;;;;;;;;;12.75;12.00;;;;;36.20;22.43;99021.69;6102416;28;97312;-55
2022/07/24 12:52:24;;;;;;;;;13.80;13.80;;;;;36.28;22.53;99021.38;6090699;28;97502;-58
2022/07/24 12:55:27;;;;;;;;;14.50;14.00;;;;;36.35;21.53;99021.44;6089733;28;97149;-55
2022/07/24 12:58:52;;;;;;;;;15.40;15.40;;;;;36.25;21.95;99013.72;6088378;28;97633;-57
2022/07/24 13:01:57;;;;;;;;;13.40;13.40;;;;;36.19;21.55;99017.28;6090330;28;96824;-56
2022/07/24 13:05:01;;;;;;;;;12.80;11.80;;;;;36.17;21.83;99014.03;6081229;28;97508;-56
2022/07/24 13:08:05;;;;;;;;;15.00;15.00;;;;;36.21;22.00;99010.09;6088971;28;98631;-59
2022/07/24 13:11:08;;;;;;;;;12.00;11.00;;;;;36.17;21.76;99012.03;6089344;28;97450;-57
2022/07/24 13:14:15;;;;;;;;;14.40;14.00;;;;;36.22;21.65;99017.28;6083565;28;97479;-60
2022/07/24 13:17:20;;;;;;;;;13.50;13.00;;;;;36.27;21.42;99005.72;6089355;28;97489;-56
2022/07/24 13:20:24;;;;;;;;;15.40;14.80;;;;;36.27;21.18;99002.09;6081815;28;97540;-59
2022/07/24 13:23:28;;;;;;;;;14.00;14.00;;;;;36.24;22.14;99008.50;6088020;28;97093;-56
2022/07/24 13:26:31;;;;;;;;;14.00;13.00;;;;;36.20;21.79;99008.47;6089247;28;97062;-56
2022/07/24 13:29:36;;;;;;;;;12.00;11.00;;;;;36.16;21.89;99007.66;6089708;28;96755;-58
2022/07/24 13:32:39;;;;;;;;;12.00;12.00;;;;;36.15;21.75;99005.22;6088551;28;96825;-55
2022/07/24 13:35:43;;;;;;;;;11.00;11.00;;;;;36.20;21.42;98997.25;6091294;28;96810;-57
2022/07/24 13:38:47;;;;;;;;;13.00;13.00;;;;;36.24;21.48;99002.88;6091366;28;96708;-55
2022/07/24 13:41:51;;;;;;;;;12.40;11.40;;;;;36.22;21.22;98994.84;6089644;28;97074;-55
2022/07/24 13:44:57;;;;;;;;;15.50;15.00;;;;;36.17;21.16;99000.00;6089623;28;97399;-55
2022/07/24 13:48:00;;;;;;;;;14.00;13.00;;;;;36.11;21.63;98995.94;6089769;28;97365;-57
2022/07/24 13:51:04;;;;;;;;;16.25;15.25;;;;;36.08;22.01;98993.91;6089791;28;97444;-58
2022/07/24 13:54:07;;;;;;;;;13.80;13.80;;;;;36.07;22.01;98995.91;6090410;28;97418;-58
2022/07/24 13:57:13;;;;;;;;;12.00;12.00;;;;;36.08;21.48;98988.28;6090902;28;96760;-60
2022/07/24 14:00:18;;;;;;;;;14.60;14.60;;;;;36.02;21.20;98988.66;6091361;28;97542;-59
2022/07/24 14:03:21;;;;;;;;;12.20;11.20;;;;;36.00;20.83;98993.06;6090909;28;96979;-58
2022/07/24 14:06:41;;;;;;;;;14.00;14.00;;;;;35.98;20.96;98987.00;6091043;28;97480;-57
2022/07/24 14:09:44;;;;;;;;;12.00;12.00;;;;;35.91;20.88;98992.56;6091193;28;97565;-58
2022/07/24 14:12:48;;;;;;;;;12.20;11.80;;;;;35.85;21.18;98980.09;6090632;28;97067;-61
2022/07/24 14:15:52;;;;;;;;;11.20;11.20;;;;;35.87;22.06;98977.72;6090819;28;97507;-57
2022/07/24 14:18:56;;;;;;;;;15.00;13.20;;;;;35.86;20.86;98981.72;6089645;28;97687;-60